Oaks Corners, New York
Current Conditions -  °F | °C
As of 10:53 AM on Sunday 25 Jan 2015 (Local Time) from KPEO Reporting Station
Light Snow Light Snow  
Wind Chill:   Ceiling: 2500
Heat Index: 20°   Visibility: 3mi
Dew Point: 11°   Wind: 9mph
Humidity: 68%   Direction: 310°NW
Pressure: 29.85"   Gusts: NA
Location:  42.93°N, 77.01°W
Report Text: KPEO 251553Z AUTO 31008KT 3SM -SN OVC025 M07/M12 A2985 RMK AO2 SNB03 SLP122 P0000 T10671117
Loading
Personal Weather Stations






























Interactive Weather Map New forecast layout! Learn more

10-Day Weather Forecast

Advertisements
Track Severe Weather on mobile